sensor_id;sensor_type;location;lat;lon;timestamp;temperature;humidity
44707;DHT22;30433;45.596;8.408;2022-09-03T00:01:47;19.50;99.90
44707;DHT22;30433;45.596;8.408;2022-09-03T00:07:56;19.60;99.90
44707;DHT22;30433;45.596;8.408;2022-09-03T00:14:08;19.40;99.90
44707;DHT22;30433;45.596;8.408;2022-09-03T00:20:14;19.30;99.90
44707;DHT22;30433;45.596;8.408;2022-09-03T00:26:23;19.50;99.90
44707;DHT22;30433;45.596;8.408;2022-09-03T00:32:42;19.50;99.90
44707;DHT22;30433;45.596;8.408;2022-09-03T00:38:46;19.30;99.90
44707;DHT22;30433;45.596;8.408;2022-09-03T00:45:01;18.80;99.90
44707;DHT22;30433;45.596;8.408;2022-09-03T00:51:13;18.50;99.90
44707;DHT22;30433;45.596;8.408;2022-09-03T00:57:28;18.70;99.90
44707;DHT22;30433;45.596;8.408;2022-09-03T01:03:38;18.60;99.90
44707;DHT22;30433;45.596;8.408;2022-09-03T01:09:49;19.10;99.90
44707;DHT22;30433;45.596;8.408;2022-09-03T01:16:01;19.00;99.90
44707;DHT22;30433;45.596;8.408;2022-09-03T01:22:28;18.90;99.90
44707;DHT22;30433;45.596;8.408;2022-09-03T01:28:45;18.80;99.90
44707;DHT22;30433;45.596;8.408;2022-09-03T01:35:00;19.10;99.90
44707;DHT22;30433;45.596;8.408;2022-09-03T01:41:12;19.10;99.90
44707;DHT22;30433;45.596;8.408;2022-09-03T01:47:46;19.20;99.90
44707;DHT22;30433;45.596;8.408;2022-09-03T01:54:22;19.10;99.90
44707;DHT22;30433;45.596;8.408;2022-09-03T02:00:29;18.80;99.90
44707;DHT22;30433;45.596;8.408;2022-09-03T02:06:34;18.70;99.90
44707;DHT22;30433;45.596;8.408;2022-09-03T02:12:38;18.70;99.90
44707;DHT22;30433;45.596;8.408;2022-09-03T02:18:45;18.80;99.90
44707;DHT22;30433;45.596;8.408;2022-09-03T02:24:51;18.80;99.90
44707;DHT22;30433;45.596;8.408;2022-09-03T02:30:54;18.70;99.90
44707;DHT22;30433;45.596;8.408;2022-09-03T02:36:56;18.70;99.90
44707;DHT22;30433;45.596;8.408;2022-09-03T02:43:00;18.70;99.90
44707;DHT22;30433;45.596;8.408;2022-09-03T02:49:03;19.00;99.90
44707;DHT22;30433;45.596;8.408;2022-09-03T02:55:05;18.90;99.90
44707;DHT22;30433;45.596;8.408;2022-09-03T03:01:09;19.00;99.90
44707;DHT22;30433;45.596;8.408;2022-09-03T03:07:11;18.90;99.90
44707;DHT22;30433;45.596;8.408;2022-09-03T03:13:14;18.90;99.90
44707;DHT22;30433;45.596;8.408;2022-09-03T03:19:18;19.20;99.90
44707;DHT22;30433;45.596;8.408;2022-09-03T03:25:20;19.30;99.90
44707;DHT22;30433;45.596;8.408;2022-09-03T03:31:23;19.40;99.90
44707;DHT22;30433;45.596;8.408;2022-09-03T03:37:27;19.20;99.90
44707;DHT22;30433;45.596;8.408;2022-09-03T03:43:29;18.90;99.90
44707;DHT22;30433;45.596;8.408;2022-09-03T03:49:31;18.60;99.90
44707;DHT22;30433;45.596;8.408;2022-09-03T03:55:34;18.40;99.90
44707;DHT22;30433;45.596;8.408;2022-09-03T04:01:36;18.40;99.90
44707;DHT22;30433;45.596;8.408;2022-09-03T04:07:39;18.40;99.90
44707;DHT22;30433;45.596;8.408;2022-09-03T04:13:43;18.40;99.90
44707;DHT22;30433;45.596;8.408;2022-09-03T04:19:46;18.60;99.90
44707;DHT22;30433;45.596;8.408;2022-09-03T04:25:51;18.50;99.90
44707;DHT22;30433;45.596;8.408;2022-09-03T04:31:55;18.50;99.90
44707;DHT22;30433;45.596;8.408;2022-09-03T04:38:15;18.10;99.90
44707;DHT22;30433;45.596;8.408;2022-09-03T04:44:17;18.00;99.90
44707;DHT22;30433;45.596;8.408;2022-09-03T04:50:21;18.00;99.90
44707;DHT22;30433;45.596;8.408;2022-09-03T04:56:25;17.80;99.90
44707;DHT22;30433;45.596;8.408;2022-09-03T05:02:27;18.10;99.90
44707;DHT22;30433;45.596;8.408;2022-09-03T05:08:31;18.20;99.90
44707;DHT22;30433;45.596;8.408;2022-09-03T05:14:36;18.30;99.90
44707;DHT22;30433;45.596;8.408;2022-09-03T05:20:38;18.10;99.90
44707;DHT22;30433;45.596;8.408;2022-09-03T05:26:41;17.80;99.90
44707;DHT22;30433;45.596;8.408;2022-09-03T05:32:43;17.90;99.90
44707;DHT22;30433;45.596;8.408;2022-09-03T05:38:46;17.80;99.90
44707;DHT22;30433;45.596;8.408;2022-09-03T05:44:49;18.00;99.90
44707;DHT22;30433;45.596;8.408;2022-09-03T05:50:58;17.90;99.90
44707;DHT22;30433;45.596;8.408;2022-09-03T05:57:01;18.00;99.90
44707;DHT22;30433;45.596;8.408;2022-09-03T06:03:05;18.00;99.90
44707;DHT22;30433;45.596;8.408;2022-09-03T06:09:08;17.90;99.90
44707;DHT22;30433;45.596;8.408;2022-09-03T06:15:11;17.90;99.90
44707;DHT22;30433;45.596;8.408;2022-09-03T06:21:14;18.00;99.90
44707;DHT22;30433;45.596;8.408;2022-09-03T06:27:17;18.00;99.90
44707;DHT22;30433;45.596;8.408;2022-09-03T06:33:20;17.90;99.90
44707;DHT22;30433;45.596;8.408;2022-09-03T06:39:26;18.10;99.90
44707;DHT22;30433;45.596;8.408;2022-09-03T06:45:28;18.20;99.90
44707;DHT22;30433;45.596;8.408;2022-09-03T06:51:31;18.20;99.90
44707;DHT22;30433;45.596;8.408;2022-09-03T06:57:35;18.30;99.90
44707;DHT22;30433;45.596;8.408;2022-09-03T07:03:39;18.10;99.90
44707;DHT22;30433;45.596;8.408;2022-09-03T07:09:41;18.30;99.90
44707;DHT22;30433;45.596;8.408;2022-09-03T07:15:45;18.30;99.90
44707;DHT22;30433;45.596;8.408;2022-09-03T07:21:47;18.30;99.90
44707;DHT22;30433;45.596;8.408;2022-09-03T07:27:49;18.30;99.90
44707;DHT22;30433;45.596;8.408;2022-09-03T07:33:54;18.40;99.90
44707;DHT22;30433;45.596;8.408;2022-09-03T07:39:56;18.50;99.90
44707;DHT22;30433;45.596;8.408;2022-09-03T07:45:59;18.60;99.90
44707;DHT22;30433;45.596;8.408;2022-09-03T07:52:02;18.70;99.90
44707;DHT22;30433;45.596;8.408;2022-09-03T07:58:04;18.80;99.90
44707;DHT22;30433;45.596;8.408;2022-09-03T08:04:07;19.20;99.90
44707;DHT22;30433;45.596;8.408;2022-09-03T08:10:12;19.40;99.90
44707;DHT22;30433;45.596;8.408;2022-09-03T08:16:15;19.60;99.90
44707;DHT22;30433;45.596;8.408;2022-09-03T08:22:18;19.70;99.90
44707;DHT22;30433;45.596;8.408;2022-09-03T08:28:23;19.40;99.90
44707;DHT22;30433;45.596;8.408;2022-09-03T08:34:25;19.50;99.90
44707;DHT22;30433;45.596;8.408;2022-09-03T08:40:28;19.70;99.90
44707;DHT22;30433;45.596;8.408;2022-09-03T08:46:40;19.80;99.90
44707;DHT22;30433;45.596;8.408;2022-09-03T08:52:46;19.80;99.90
44707;DHT22;30433;45.596;8.408;2022-09-03T08:58:49;19.80;99.90
44707;DHT22;30433;45.596;8.408;2022-09-03T09:05:02;19.90;99.90
44707;DHT22;30433;45.596;8.408;2022-09-03T09:11:14;19.80;99.90
44707;DHT22;30433;45.596;8.408;2022-09-03T09:17:29;19.90;99.90
44707;DHT22;30433;45.596;8.408;2022-09-03T09:23:38;19.80;99.90
44707;DHT22;30433;45.596;8.408;2022-09-03T09:29:45;19.90;99.90
44707;DHT22;30433;45.596;8.408;2022-09-03T09:35:49;19.90;99.90
44707;DHT22;30433;45.596;8.408;2022-09-03T09:42:00;19.90;99.90
44707;DHT22;30433;45.596;8.408;2022-09-03T09:48:12;20.00;99.90
44707;DHT22;30433;45.596;8.408;2022-09-03T09:54:18;20.20;99.90
44707;DHT22;30433;45.596;8.408;2022-09-03T10:00:29;20.50;99.90
44707;DHT22;30433;45.596;8.408;2022-09-03T10:06:34;20.60;99.90
44707;DHT22;30433;45.596;8.408;2022-09-03T10:12:59;20.80;99.90
44707;DHT22;30433;45.596;8.408;2022-09-03T10:19:08;20.90;99.90
44707;DHT22;30433;45.596;8.408;2022-09-03T10:25:13;20.80;99.90
44707;DHT22;30433;45.596;8.408;2022-09-03T10:31:35;20.60;99.90
44707;DHT22;30433;45.596;8.408;2022-09-03T10:37:48;20.70;99.90
44707;DHT22;30433;45.596;8.408;2022-09-03T10:50:27;21.00;99.90
44707;DHT22;30433;45.596;8.408;2022-09-03T10:56:41;21.20;99.90
44707;DHT22;30433;45.596;8.408;2022-09-03T11:03:06;21.20;99.80
44707;DHT22;30433;45.596;8.408;2022-09-03T11:09:17;21.50;99.90
44707;DHT22;30433;45.596;8.408;2022-09-03T11:15:25;21.50;99.90
44707;DHT22;30433;45.596;8.408;2022-09-03T11:21:30;21.40;99.90
44707;DHT22;30433;45.596;8.408;2022-09-03T11:27:48;21.70;99.90
44707;DHT22;30433;45.596;8.408;2022-09-03T11:33:58;22.30;99.50
44707;DHT22;30433;45.596;8.408;2022-09-03T11:40:05;22.50;98.40
44707;DHT22;30433;45.596;8.408;2022-09-03T11:46:10;23.20;99.10
44707;DHT22;30433;45.596;8.408;2022-09-03T11:52:25;23.20;98.10
44707;DHT22;30433;45.596;8.408;2022-09-03T11:58:29;22.60;98.40
44707;DHT22;30433;45.596;8.408;2022-09-03T12:04:39;22.50;97.40
44707;DHT22;30433;45.596;8.408;2022-09-03T12:10:51;22.80;97.60
44707;DHT22;30433;45.596;8.408;2022-09-03T12:17:14;23.00;97.50
44707;DHT22;30433;45.596;8.408;2022-09-03T12:23:29;23.10;96.10
44707;DHT22;30433;45.596;8.408;2022-09-03T12:29:34;23.10;96.70
44707;DHT22;30433;45.596;8.408;2022-09-03T12:35:36;23.10;96.20
44707;DHT22;30433;45.596;8.408;2022-09-03T12:41:45;22.50;96.30
44707;DHT22;30433;45.596;8.408;2022-09-03T12:47:54;22.90;97.10
44707;DHT22;30433;45.596;8.408;2022-09-03T12:53:58;23.00;98.20
44707;DHT22;30433;45.596;8.408;2022-09-03T13:00:05;22.80;98.20
44707;DHT22;30433;45.596;8.408;2022-09-03T13:06:11;23.00;97.30
44707;DHT22;30433;45.596;8.408;2022-09-03T13:12:21;23.40;95.90
44707;DHT22;30433;45.596;8.408;2022-09-03T13:18:30;23.30;95.90
44707;DHT22;30433;45.596;8.408;2022-09-03T13:25:00;23.40;95.40
44707;DHT22;30433;45.596;8.408;2022-09-03T13:31:09;23.60;95.50
44707;DHT22;30433;45.596;8.408;2022-09-03T13:37:24;23.60;96.10
44707;DHT22;30433;45.596;8.408;2022-09-03T13:43:33;23.50;95.80
44707;DHT22;30433;45.596;8.408;2022-09-03T13:49:41;23.30;96.20
44707;DHT22;30433;45.596;8.408;2022-09-03T13:56:06;23.60;96.30
44707;DHT22;30433;45.596;8.408;2022-09-03T14:02:22;23.50;95.70
44707;DHT22;30433;45.596;8.408;2022-09-03T14:08:33;23.60;96.40
44707;DHT22;30433;45.596;8.408;2022-09-03T14:14:43;23.60;95.10
44707;DHT22;30433;45.596;8.408;2022-09-03T14:20:53;23.40;95.40
44707;DHT22;30433;45.596;8.408;2022-09-03T14:27:00;23.50;95.30
44707;DHT22;30433;45.596;8.408;2022-09-03T14:33:11;23.40;95.60
44707;DHT22;30433;45.596;8.408;2022-09-03T14:39:30;23.60;95.20
44707;DHT22;30433;45.596;8.408;2022-09-03T14:45:54;23.40;95.40
44707;DHT22;30433;45.596;8.408;2022-09-03T14:52:11;23.40;95.80
44707;DHT22;30433;45.596;8.408;2022-09-03T14:58:26;23.20;96.10
44707;DHT22;30433;45.596;8.408;2022-09-03T15:04:44;23.20;96.70
44707;DHT22;30433;45.596;8.408;2022-09-03T15:10:55;23.20;96.20
44707;DHT22;30433;45.596;8.408;2022-09-03T15:17:13;23.20;96.30
44707;DHT22;30433;45.596;8.408;2022-09-03T15:23:37;23.10;96.70
44707;DHT22;30433;45.596;8.408;2022-09-03T15:29:48;23.00;97.00
44707;DHT22;30433;45.596;8.408;2022-09-03T15:36:12;22.90;96.90
44707;DHT22;30433;45.596;8.408;2022-09-03T15:42:23;22.90;96.90
44707;DHT22;30433;45.596;8.408;2022-09-03T15:48:31;22.90;97.10
44707;DHT22;30433;45.596;8.408;2022-09-03T15:54:41;22.90;97.40
44707;DHT22;30433;45.596;8.408;2022-09-03T16:00:54;22.80;97.30
44707;DHT22;30433;45.596;8.408;2022-09-03T16:07:06;22.60;97.20
44707;DHT22;30433;45.596;8.408;2022-09-03T16:13:36;22.50;97.70
44707;DHT22;30433;45.596;8.408;2022-09-03T16:19:44;22.50;98.00
44707;DHT22;30433;45.596;8.408;2022-09-03T16:25:52;22.50;98.10
44707;DHT22;30433;45.596;8.408;2022-09-03T16:32:11;22.50;98.70
44707;DHT22;30433;45.596;8.408;2022-09-03T16:38:27;22.20;98.40
44707;DHT22;30433;45.596;8.408;2022-09-03T16:44:42;22.30;98.70
44707;DHT22;30433;45.596;8.408;2022-09-03T16:51:00;22.20;98.50
44707;DHT22;30433;45.596;8.408;2022-09-03T16:57:17;22.10;98.40
44707;DHT22;30433;45.596;8.408;2022-09-03T17:03:40;22.10;98.50
44707;DHT22;30433;45.596;8.408;2022-09-03T17:09:55;22.00;98.80
44707;DHT22;30433;45.596;8.408;2022-09-03T17:16:03;22.00;99.40
44707;DHT22;30433;45.596;8.408;2022-09-03T17:22:19;22.00;99.20
44707;DHT22;30433;45.596;8.408;2022-09-03T17:28:37;21.80;99.50
44707;DHT22;30433;45.596;8.408;2022-09-03T17:34:55;21.70;99.40
44707;DHT22;30433;45.596;8.408;2022-09-03T17:41:07;21.80;99.90
44707;DHT22;30433;45.596;8.408;2022-09-03T17:47:51;21.80;99.90
44707;DHT22;30433;45.596;8.408;2022-09-03T17:54:06;21.60;99.90
44707;DHT22;30433;45.596;8.408;2022-09-03T18:00:11;21.60;99.90
44707;DHT22;30433;45.596;8.408;2022-09-03T18:06:29;21.50;99.90
44707;DHT22;30433;45.596;8.408;2022-09-03T18:12:40;21.40;99.90
44707;DHT22;30433;45.596;8.408;2022-09-03T18:18:46;21.50;99.90
44707;DHT22;30433;45.596;8.408;2022-09-03T18:24:56;21.40;99.90
44707;DHT22;30433;45.596;8.408;2022-09-03T18:31:17;21.40;99.90
44707;DHT22;30433;45.596;8.408;2022-09-03T18:37:36;21.40;99.90
44707;DHT22;30433;45.596;8.408;2022-09-03T18:44:04;21.40;99.90
44707;DHT22;30433;45.596;8.408;2022-09-03T18:50:31;21.20;99.90
44707;DHT22;30433;45.596;8.408;2022-09-03T18:56:52;21.10;99.90
44707;DHT22;30433;45.596;8.408;2022-09-03T19:03:25;21.10;99.90
44707;DHT22;30433;45.596;8.408;2022-09-03T19:09:54;21.00;99.90
44707;DHT22;30433;45.596;8.408;2022-09-03T19:16:21;20.90;99.90
44707;DHT22;30433;45.596;8.408;2022-09-03T19:22:45;21.00;99.90
44707;DHT22;30433;45.596;8.408;2022-09-03T19:29:15;20.90;99.90
44707;DHT22;30433;45.596;8.408;2022-09-03T19:35:42;20.60;99.90
44707;DHT22;30433;45.596;8.408;2022-09-03T19:42:11;20.40;99.90
44707;DHT22;30433;45.596;8.408;2022-09-03T19:48:39;20.30;99.90
44707;DHT22;30433;45.596;8.408;2022-09-03T19:55:05;20.20;99.90
44707;DHT22;30433;45.596;8.408;2022-09-03T20:01:31;20.10;99.90
44707;DHT22;30433;45.596;8.408;2022-09-03T20:07:54;20.00;99.90
44707;DHT22;30433;45.596;8.408;2022-09-03T20:14:15;19.90;99.90
44707;DHT22;30433;45.596;8.408;2022-09-03T20:20:24;19.90;99.90
44707;DHT22;30433;45.596;8.408;2022-09-03T20:26:38;19.80;99.90
44707;DHT22;30433;45.596;8.408;2022-09-03T20:32:59;19.70;99.90
44707;DHT22;30433;45.596;8.408;2022-09-03T20:39:44;19.60;99.90
44707;DHT22;30433;45.596;8.408;2022-09-03T20:45:59;19.60;99.90
44707;DHT22;30433;45.596;8.408;2022-09-03T20:52:09;19.30;99.90
44707;DHT22;30433;45.596;8.408;2022-09-03T20:58:20;19.20;99.90
44707;DHT22;30433;45.596;8.408;2022-09-03T21:04:38;19.20;99.90
44707;DHT22;30433;45.596;8.408;2022-09-03T21:10:51;19.10;99.90
44707;DHT22;30433;45.596;8.408;2022-09-03T21:17:21;19.50;99.90
44707;DHT22;30433;45.596;8.408;2022-09-03T21:23:28;19.40;99.90
44707;DHT22;30433;45.596;8.408;2022-09-03T21:29:38;19.60;99.90
44707;DHT22;30433;45.596;8.408;2022-09-03T21:35:46;19.40;99.90
44707;DHT22;30433;45.596;8.408;2022-09-03T21:41:56;19.50;99.90
44707;DHT22;30433;45.596;8.408;2022-09-03T21:48:05;19.40;99.90
44707;DHT22;30433;45.596;8.408;2022-09-03T21:54:13;19.20;99.90
44707;DHT22;30433;45.596;8.408;2022-09-03T22:00:19;19.30;99.90
44707;DHT22;30433;45.596;8.408;2022-09-03T22:06:36;19.00;99.90
44707;DHT22;30433;45.596;8.408;2022-09-03T22:12:47;18.80;99.90
44707;DHT22;30433;45.596;8.408;2022-09-03T22:18:53;18.70;99.90
44707;DHT22;30433;45.596;8.408;2022-09-03T22:25:00;18.60;99.90
44707;DHT22;30433;45.596;8.408;2022-09-03T22:31:10;18.70;99.90
44707;DHT22;30433;45.596;8.408;2022-09-03T22:37:21;18.60;99.90
44707;DHT22;30433;45.596;8.408;2022-09-03T22:43:33;18.50;99.90
44707;DHT22;30433;45.596;8.408;2022-09-03T22:49:43;18.40;99.90
44707;DHT22;30433;45.596;8.408;2022-09-03T22:55:56;18.50;99.90
44707;DHT22;30433;45.596;8.408;2022-09-03T23:02:05;18.30;99.90
44707;DHT22;30433;45.596;8.408;2022-09-03T23:08:14;18.20;99.90
44707;DHT22;30433;45.596;8.408;2022-09-03T23:14:21;18.10;99.90
44707;DHT22;30433;45.596;8.408;2022-09-03T23:20:27;18.30;99.90
44707;DHT22;30433;45.596;8.408;2022-09-03T23:26:36;18.40;99.90
44707;DHT22;30433;45.596;8.408;2022-09-03T23:32:39;18.40;99.90
44707;DHT22;30433;45.596;8.408;2022-09-03T23:38:52;18.30;99.90
44707;DHT22;30433;45.596;8.408;2022-09-03T23:45:08;18.30;99.90
44707;DHT22;30433;45.596;8.408;2022-09-03T23:51:21;18.20;99.90
44707;DHT22;30433;45.596;8.408;2022-09-03T23:57:31;18.20;99.90
